Aberaeron, United Kingdom
Current Conditions -  °F | °C
As of 12:50 PM on Thursday 30 Oct 2014 (Local Time) from EGOP Reporting Station
Broken Clouds Broken Clouds  
Wind Chill: 61°   Ceiling: 4400
Heat Index: 61°   Visibility: 6mi
Dew Point: 59°   Wind: 20mph
Humidity: 94%   Direction: 170°S
Pressure: 29.97"   Gusts: NA
Location:  52.24°N, 4.26°W
Report Text: EGOP 301250Z 17017KT 9999 FEW022 SCT032 BKN044 16/15 Q1015 BLU
Loading
Personal Weather Stations






























Interactive Weather Map
Tropical Storm Tracking
New forecast layout! Learn more

10-Day Weather Forecast

Advertisements
Track Severe Weather on mobile